Wetterdaten: Woche 13.10.14 - 19.10.14 (KW42)
Datum Zeit Temp. A. Feuchte A. Luftdruck Regen Wind Richtung Sonnenschein ET UV Solar Taupunkt Windchill Windben
13.10.2014 00:00 14,4 C 89 % 1010,4 hPa 0,0 l/m 1,2 km/h (1 Bft) O-NO 0,00 h 0,000 mm 0,0 UV-I 0 W/m 12,6 C 14,4 C 3,5 km/h (1 Bft)
13.10.2014 01:00 14,1 C 90 % 1010,4 hPa 0,0 l/m 1,6 km/h (1 Bft) O-NO 0,00 h 0,000 mm 0,0 UV-I 0 W/m 12,5 C 14,1 C 3,7 km/h (1 Bft)
13.10.2014 02:00 13,3 C 91 % 1010,1 hPa 0,0 l/m 1,3 km/h (1 Bft) O 0,00 h 0,000 mm 0,0 UV-I 0 W/m 11,8 C 13,3 C 3,6 km/h (1 Bft)
13.10.2014 03:00 12,9 C 94 % 1009,4 hPa 0,0 l/m 1,8 km/h (1 Bft) O 0,00 h 0,000 mm 0,0 UV-I 0 W/m 11,9 C 12,9 C 5,2 km/h (1 Bft)
13.10.2014 04:00 12,8 C 95 % 1009,2 hPa 0,0 l/m 2,1 km/h (1 Bft) O 0,00 h 0,000 mm 0,0 UV-I 0 W/m 11,9 C 12,8 C 5,0 km/h (1 Bft)
13.10.2014 05:00 12,4 C 94 % 1009,2 hPa 0,0 l/m 0,4 km/h (0 Bft) N 0,00 h 0,000 mm 0,0 UV-I 0 W/m 11,4 C 12,4 C 1,6 km/h (1 Bft)
13.10.2014 06:00 11,5 C 94 % 1009,0 hPa 0,0 l/m 0,8 km/h (0 Bft) O 0,00 h 0,000 mm 0,0 UV-I 0 W/m 10,6 C 11,5 C 2,6 km/h (1 Bft)
13.10.2014 07:00 11,9 C 97 % 1008,9 hPa 0,0 l/m 1,3 km/h (1 Bft) N 0,00 h 0,000 mm 0,0 UV-I 13 W/m 11,3 C 11,9 C 3,3 km/h (1 Bft)
13.10.2014 08:00 12,1 C 97 % 1009,2 hPa 0,0 l/m 1,5 km/h (1 Bft) O 0,25 h 0,000 mm 0,0 UV-I 43 W/m 11,6 C 12,1 C 3,5 km/h (1 Bft)
13.10.2014 09:00 13,6 C 96 % 1009,4 hPa 0,0 l/m 2,3 km/h (1 Bft) O-NO 1,00 h 0,025 mm 0,7 UV-I 136 W/m 13,0 C 13,6 C 4,9 km/h (1 Bft)
13.10.2014 10:00 16,2 C 87 % 1009,2 hPa 0,0 l/m 4,1 km/h (1 Bft) O-NO 1,00 h 0,076 mm 1,4 UV-I 307 W/m 14,0 C 16,1 C 7,6 km/h (2 Bft)
13.10.2014 11:00 16,4 C 86 % 1009,2 hPa 0,0 l/m 2,4 km/h (1 Bft) O-NO 1,00 h 0,178 mm 1,2 UV-I 182 W/m 14,0 C 16,4 C 5,2 km/h (1 Bft)
13.10.2014 12:00 17,7 C 82 % 1009,1 hPa 0,0 l/m 1,4 km/h (1 Bft) N-NO 1,00 h 0,102 mm 2,1 UV-I 345 W/m 14,5 C 17,7 C 3,0 km/h (1 Bft)
13.10.2014 13:00 18,9 C 77 % 1009,2 hPa 0,0 l/m 3,4 km/h (1 Bft) W-NW 1,00 h 0,203 mm 2,1 UV-I 360 W/m 14,7 C 18,8 C 6,1 km/h (2 Bft)
13.10.2014 14:00 18,4 C 75 % 1008,8 hPa 0,0 l/m 3,4 km/h (1 Bft) S 1,00 h 0,203 mm 1,4 UV-I 212 W/m 13,8 C 18,3 C 5,9 km/h (2 Bft)
13.10.2014 15:00 18,0 C 77 % 1008,6 hPa 0,0 l/m 2,6 km/h (1 Bft) S-SW 1,00 h 0,127 mm 0,8 UV-I 123 W/m 13,9 C 18,0 C 4,9 km/h (1 Bft)
13.10.2014 16:00 17,7 C 79 % 1008,2 hPa 0,0 l/m 0,8 km/h (0 Bft) W 0,72 h 0,076 mm 0,5 UV-I 73 W/m 13,9 C 17,7 C 2,3 km/h (1 Bft)
13.10.2014 17:00 17,0 C 83 % 1008,2 hPa 0,0 l/m 1,1 km/h (1 Bft) W-SW 0,00 h 0,051 mm 0,0 UV-I 20 W/m 14,1 C 17,0 C 2,6 km/h (1 Bft)
13.10.2014 18:00 16,5 C 87 % 1008,1 hPa 0,0 l/m 0,8 km/h (0 Bft) O-SO 0,00 h 0,025 mm 0,0 UV-I 0 W/m 14,2 C 16,5 C 2,2 km/h (1 Bft)
13.10.2014 19:00 15,7 C 90 % 1008,3 hPa 0,0 l/m 0,0 km/h (0 Bft) N 0,00 h 0,000 mm 0,0 UV-I 0 W/m 14,1 C 15,7 C 0,2 km/h (0 Bft)
13.10.2014 20:00 15,1 C 93 % 1008,1 hPa 0,0 l/m 0,1 km/h (0 Bft) N 0,00 h 0,000 mm 0,0 UV-I 0 W/m 13,9 C 15,1 C 0,7 km/h (0 Bft)
13.10.2014 21:00 14,7 C 94 % 1008,1 hPa 0,0 l/m 0,3 km/h (0 Bft) N 0,00 h 0,000 mm 0,0 UV-I 0 W/m 13,8 C 14,7 C 0,9 km/h (0 Bft)
13.10.2014 22:00 14,5 C 95 % 1007,9 hPa 0,2 l/m 0,0 km/h (0 Bft) N 0,00 h 0,000 mm 0,0 UV-I 0 W/m 13,7 C 14,5 C 0,4 km/h (0 Bft)
13.10.2014 23:00 14,2 C 95 % 1007,8 hPa 0,2 l/m 0,4 km/h (0 Bft) N 0,00 h 0,000 mm 0,0 UV-I 0 W/m 13,4 C 14,2 C 1,2 km/h (1 Bft)
14.10.2014 00:00 14,0 C 96 % 1008,0 hPa 0,6 l/m 0,1 km/h (0 Bft) N 0,00 h 0,000 mm 0,0 UV-I 0 W/m 13,4 C 14,0 C 0,7 km/h (0 Bft)
14.10.2014 01:00 13,9 C 96 % 1007,9 hPa 1,8 l/m 0,0 km/h (0 Bft) N 0,00 h 0,000 mm 0,0 UV-I 0 W/m 13,3 C 13,9 C 0,1 km/h (0 Bft)
14.10.2014 02:00 13,8 C 97 % 1007,7 hPa 0,8 l/m 1,7 km/h (1 Bft) S-SO 0,00 h 0,000 mm 0,0 UV-I 0 W/m 13,3 C 13,8 C 3,3 km/h (1 Bft)
14.10.2014 03:00 13,7 C 97 % 1007,8 hPa 2,4 l/m 5,4 km/h (1 Bft) W 0,00 h 0,000 mm 0,0 UV-I 0 W/m 13,3 C 13,4 C 8,9 km/h (2 Bft)
14.10.2014 04:00 13,6 C 97 % 1008,1 hPa 0,8 l/m 2,7 km/h (1 Bft) W-NW 0,00 h 0,000 mm 0,0 UV-I 0 W/m 13,1 C 13,6 C 5,4 km/h (1 Bft)
14.10.2014 05:00 13,3 C 97 % 1008,4 hPa 0,0 l/m 2,2 km/h (1 Bft) W-NW 0,00 h 0,000 mm 0,0 UV-I 0 W/m 12,8 C 13,3 C 4,4 km/h (1 Bft)
14.10.2014 06:00 13,2 C 97 % 1008,8 hPa 0,4 l/m 2,2 km/h (1 Bft) W-SW 0,00 h 0,000 mm 0,0 UV-I 0 W/m 12,7 C 13,2 C 4,6 km/h (1 Bft)
14.10.2014 07:00 13,0 C 97 % 1009,1 hPa 0,4 l/m 2,1 km/h (1 Bft) W-NW 0,00 h 0,000 mm 0,0 UV-I 5 W/m 12,6 C 13,0 C 3,8 km/h (1 Bft)
14.10.2014 08:00 12,7 C 96 % 1009,4 hPa 0,0 l/m 0,9 km/h (0 Bft) W-NW 0,10 h 0,000 mm 0,0 UV-I 36 W/m 12,1 C 12,7 C 2,2 km/h (1 Bft)
14.10.2014 09:00 13,2 C 97 % 1010,1 hPa 0,0 l/m 2,9 km/h (1 Bft) W-SW 1,00 h 0,025 mm 0,6 UV-I 74 W/m 12,7 C 13,2 C 5,7 km/h (2 Bft)
14.10.2014 10:00 14,2 C 94 % 1010,4 hPa 0,0 l/m 3,1 km/h (1 Bft) S 1,00 h 0,051 mm 1,1 UV-I 215 W/m 13,2 C 14,2 C 5,9 km/h (2 Bft)
14.10.2014 11:00 15,2 C 88 % 1010,5 hPa 0,0 l/m 6,1 km/h (2 Bft) SW 1,00 h 0,127 mm 1,8 UV-I 331 W/m 13,3 C 14,8 C 10,0 km/h (2 Bft)
14.10.2014 12:00 15,4 C 87 % 1010,5 hPa 0,0 l/m 5,1 km/h (1 Bft) S 1,00 h 0,203 mm 1,5 UV-I 258 W/m 13,2 C 15,1 C 8,5 km/h (2 Bft)
14.10.2014 13:00 16,2 C 83 % 1010,2 hPa 0,0 l/m 4,7 km/h (1 Bft) SW 1,00 h 0,152 mm 2,1 UV-I 322 W/m 13,3 C 16,2 C 7,8 km/h (2 Bft)
14.10.2014 14:00 16,2 C 83 % 1009,8 hPa 0,0 l/m 2,8 km/h (1 Bft) S 0,95 h 0,203 mm 1,4 UV-I 183 W/m 13,2 C 16,2 C 4,9 km/h (1 Bft)
14.10.2014 15:00 17,1 C 77 % 1009,6 hPa 0,0 l/m 5,8 km/h (2 Bft) S 1,00 h 0,102 mm 1,1 UV-I 297 W/m 13,1 C 16,8 C 9,1 km/h (2 Bft)
14.10.2014 16:00 17,2 C 76 % 1009,3 hPa 0,0 l/m 6,0 km/h (2 Bft) S 1,00 h 0,178 mm 0,7 UV-I 173 W/m 12,8 C 16,8 C 9,5 km/h (2 Bft)
14.10.2014 17:00 16,4 C 78 % 1009,2 hPa 0,0 l/m 4,7 km/h (1 Bft) S 0,30 h 0,127 mm 0,0 UV-I 44 W/m 12,5 C 16,3 C 7,7 km/h (2 Bft)
14.10.2014 18:00 15,2 C 82 % 1009,2 hPa 0,0 l/m 2,4 km/h (1 Bft) O-SO 0,00 h 0,051 mm 0,0 UV-I 8 W/m 12,2 C 15,2 C 4,3 km/h (1 Bft)
14.10.2014 19:00 14,0 C 85 % 1009,5 hPa 0,0 l/m 2,6 km/h (1 Bft) O 0,00 h 0,000 mm 0,0 UV-I 0 W/m 11,6 C 14,0 C 4,5 km/h (1 Bft)
14.10.2014 20:00 12,5 C 89 % 1009,4 hPa 0,0 l/m 2,1 km/h (1 Bft) O-SO 0,00 h 0,025 mm 0,0 UV-I 0 W/m 10,7 C 12,5 C 3,9 km/h (1 Bft)
14.10.2014 21:00 11,6 C 93 % 1009,3 hPa 0,0 l/m 1,8 km/h (1 Bft) O 0,00 h 0,001 mm 0,0 UV-I 0 W/m 10,4 C 11,6 C 3,3 km/h (1 Bft)
14.10.2014 22:00 10,8 C 92 % 1009,4 hPa 0,0 l/m 0,1 km/h (0 Bft) N 0,00 h 0,000 mm 0,0 UV-I 0 W/m 9,5 C 10,8 C 0,4 km/h (0 Bft)
14.10.2014 23:00 9,6 C 92 % 1009,6 hPa 0,0 l/m 0,3 km/h (0 Bft) N 0,00 h 0,000 mm 0,0 UV-I 0 W/m 8,5 C 9,6 C 1,0 km/h (0 Bft)
15.10.2014 00:00 8,8 C 95 % 1009,4 hPa 0,0 l/m 0,1 km/h (0 Bft) N 0,00 h 0,000 mm 0,0 UV-I 0 W/m 8,0 C 8,8 C 0,4 km/h (0 Bft)
15.10.2014 01:00 8,3 C 95 % 1009,0 hPa 0,0 l/m 0,1 km/h (0 Bft) N 0,00 h 0,000 mm 0,0 UV-I 0 W/m 7,4 C 8,3 C 0,4 km/h (0 Bft)
15.10.2014 02:00 7,9 C 95 % 1008,8 hPa 0,0 l/m 0,0 km/h (0 Bft) N 0,00 h 0,000 mm 0,0 UV-I 0 W/m 7,1 C 7,9 C 0,0 km/h (0 Bft)
15.10.2014 03:00 7,6 C 95 % 1008,9 hPa 0,0 l/m 0,0 km/h (0 Bft) N 0,00 h 0,000 mm 0,0 UV-I 0 W/m 7,0 C 7,6 C 0,2 km/h (0 Bft)
15.10.2014 04:00 7,8 C 96 % 1008,7 hPa 0,0 l/m 0,4 km/h (0 Bft) N 0,00 h 0,000 mm 0,0 UV-I 0 W/m 7,2 C 7,8 C 1,0 km/h (0 Bft)
15.10.2014 05:00 8,1 C 97 % 1008,6 hPa 0,0 l/m 0,1 km/h (0 Bft) N 0,00 h 0,000 mm 0,0 UV-I 0 W/m 7,6 C 8,1 C 0,5 km/h (0 Bft)
15.10.2014 06:00 8,3 C 97 % 1008,3 hPa 0,0 l/m 0,1 km/h (0 Bft) N 0,00 h 0,000 mm 0,0 UV-I 0 W/m 7,9 C 8,3 C 0,2 km/h (0 Bft)
15.10.2014 07:00 8,3 C 97 % 1008,2 hPa 0,0 l/m 0,1 km/h (0 Bft) N 0,00 h 0,000 mm 0,0 UV-I 7 W/m 7,9 C 8,3 C 0,4 km/h (0 Bft)
15.10.2014 08:00 8,6 C 97 % 1008,7 hPa 0,0 l/m 1,0 km/h (0 Bft) N 0,23 h 0,000 mm 0,0 UV-I 40 W/m 8,2 C 8,5 C 2,0 km/h (1 Bft)
15.10.2014 09:00 9,8 C 98 % 1009,2 hPa 0,0 l/m 2,1 km/h (1 Bft) N 0,27 h 0,025 mm 0,0 UV-I 32 W/m 9,4 C 9,6 C 3,8 km/h (1 Bft)
15.10.2014 10:00 10,8 C 97 % 1009,1 hPa 0,6 l/m 1,4 km/h (1 Bft) N 0,38 h 0,025 mm 0,0 UV-I 39 W/m 10,3 C 10,8 C 2,7 km/h (1 Bft)
15.10.2014 11:00 12,0 C 97 % 1008,6 hPa 0,2 l/m 0,9 km/h (0 Bft) S-SO 1,00 h 0,025 mm 1,2 UV-I 206 W/m 11,5 C 12,0 C 2,4 km/h (1 Bft)
15.10.2014 12:00 14,1 C 88 % 1008,5 hPa 0,0 l/m 2,9 km/h (1 Bft) W-SW 1,00 h 0,102 mm 1,8 UV-I 318 W/m 12,1 C 14,1 C 5,4 km/h (1 Bft)
15.10.2014 13:00 15,2 C 82 % 1008,0 hPa 0,0 l/m 4,2 km/h (1 Bft) W-SW 1,00 h 0,152 mm 2,1 UV-I 395 W/m 12,1 C 15,0 C 7,1 km/h (2 Bft)
15.10.2014 14:00 16,2 C 79 % 1007,7 hPa 0,0 l/m 6,2 km/h (2 Bft) SW 1,00 h 0,203 mm 1,5 UV-I 315 W/m 12,6 C 15,9 C 9,8 km/h (2 Bft)
15.10.2014 15:00 14,8 C 86 % 1007,7 hPa 0,4 l/m 5,0 km/h (1 Bft) W 0,38 h 0,178 mm 0,8 UV-I 69 W/m 12,5 C 14,7 C 8,2 km/h (2 Bft)
15.10.2014 16:00 12,9 C 92 % 1007,8 hPa 0,4 l/m 3,6 km/h (1 Bft) S 0,67 h 0,051 mm 0,0 UV-I 58 W/m 11,6 C 12,7 C 5,9 km/h (2 Bft)
15.10.2014 17:00 12,4 C 93 % 1007,8 hPa 0,0 l/m 0,7 km/h (0 Bft) N 0,00 h 0,025 mm 0,0 UV-I 32 W/m 11,2 C 12,4 C 1,9 km/h (1 Bft)
15.10.2014 18:00 12,1 C 93 % 1008,0 hPa 0,0 l/m 0,2 km/h (0 Bft) O-SO 0,00 h 0,025 mm 0,0 UV-I 5 W/m 11,0 C 12,1 C 1,3 km/h (1 Bft)
15.10.2014 19:00 11,4 C 93 % 1008,1 hPa 0,0 l/m 0,4 km/h (0 Bft) N 0,00 h 0,000 mm 0,0 UV-I 0 W/m 10,3 C 11,4 C 1,1 km/h (1 Bft)
15.10.2014 20:00 10,7 C 94 % 1008,3 hPa 0,0 l/m 0,0 km/h (0 Bft) N 0,00 h 0,000 mm 0,0 UV-I 0 W/m 9,8 C 10,7 C 0,0 km/h (0 Bft)
15.10.2014 21:00 10,1 C 94 % 1008,6 hPa 0,0 l/m 0,3 km/h (0 Bft) N 0,00 h 0,002 mm 0,0 UV-I 0 W/m 9,2 C 10,1 C 0,7 km/h (0 Bft)
15.10.2014 22:00 9,6 C 95 % 1008,8 hPa 0,0 l/m 0,0 km/h (0 Bft) N 0,00 h 0,000 mm 0,0 UV-I 0 W/m 8,9 C 9,6 C 0,2 km/h (0 Bft)
15.10.2014 23:00 9,3 C 95 % 1008,6 hPa 0,0 l/m 0,0 km/h (0 Bft) N 0,00 h 0,000 mm 0,0 UV-I 0 W/m 8,6 C 9,3 C 0,0 km/h (0 Bft)
16.10.2014 00:00 9,2 C 96 % 1008,6 hPa 0,0 l/m 0,0 km/h (0 Bft) N 0,00 h 0,000 mm 0,0 UV-I 0 W/m 8,5 C 9,2 C 0,1 km/h (0 Bft)
16.10.2014 01:00 9,2 C 96 % 1008,6 hPa 0,0 l/m 0,0 km/h (0 Bft) N 0,00 h 0,000 mm 0,0 UV-I 0 W/m 8,6 C 9,2 C 0,2 km/h (0 Bft)
16.10.2014 02:00 9,3 C 97 % 1008,3 hPa 0,0 l/m 0,0 km/h (0 Bft) N 0,00 h 0,000 mm 0,0 UV-I 0 W/m 8,9 C 9,3 C 0,1 km/h (0 Bft)
16.10.2014 03:00 9,6 C 97 % 1007,9 hPa 0,6 l/m 0,3 km/h (0 Bft) N 0,00 h 0,000 mm 0,0 UV-I 0 W/m 9,1 C 9,6 C 0,7 km/h (0 Bft)
16.10.2014 04:00 10,1 C 98 % 1007,9 hPa 2,4 l/m 0,7 km/h (0 Bft) N 0,00 h 0,000 mm 0,0 UV-I 0 W/m 9,8 C 10,1 C 1,8 km/h (1 Bft)
16.10.2014 05:00 10,7 C 98 % 1007,5 hPa 0,0 l/m 0,2 km/h (0 Bft) N 0,00 h 0,000 mm 0,0 UV-I 0 W/m 10,4 C 10,7 C 1,2 km/h (1 Bft)
16.10.2014 06:00 11,3 C 98 % 1007,3 hPa 0,0 l/m 3,8 km/h (1 Bft) S 0,00 h 0,000 mm 0,0 UV-I 0 W/m 11,0 C 11,2 C 6,7 km/h (2 Bft)
16.10.2014 07:00 11,8 C 98 % 1007,6 hPa 0,0 l/m 5,8 km/h (2 Bft) S 0,00 h 0,000 mm 0,0 UV-I 5 W/m 11,5 C 11,5 C 10,3 km/h (2 Bft)
16.10.2014 08:00 12,0 C 97 % 1008,0 hPa 0,2 l/m 5,1 km/h (1 Bft) SW 0,13 h 0,000 mm 0,0 UV-I 35 W/m 11,6 C 11,9 C 9,0 km/h (2 Bft)
16.10.2014 09:00 12,3 C 96 % 1008,3 hPa 0,0 l/m 3,6 km/h (1 Bft) W-SW 0,23 h 0,025 mm 0,5 UV-I 40 W/m 11,7 C 12,3 C 6,7 km/h (2 Bft)
16.10.2014 10:00 12,8 C 95 % 1008,2 hPa 0,0 l/m 4,2 km/h (1 Bft) W-SW 0,82 h 0,025 mm 0,6 UV-I 82 W/m 12,1 C 12,6 C 7,8 km/h (2 Bft)
16.10.2014 11:00 14,7 C 89 % 1008,4 hPa 0,0 l/m 10,5 km/h (2 Bft) W-SW 1,00 h 0,051 mm 1,8 UV-I 373 W/m 12,9 C 12,6 C 16,4 km/h (3 Bft)
16.10.2014 12:00 14,6 C 88 % 1008,3 hPa 0,0 l/m 7,3 km/h (2 Bft) SW 1,00 h 0,203 mm 1,2 UV-I 158 W/m 12,6 C 13,8 C 11,6 km/h (2 Bft)
16.10.2014 13:00 15,1 C 87 % 1007,8 hPa 0,0 l/m 5,8 km/h (2 Bft) SW 1,00 h 0,102 mm 1,2 UV-I 162 W/m 13,0 C 14,8 C 9,4 km/h (2 Bft)
16.10.2014 14:00 16,8 C 82 % 1007,3 hPa 0,0 l/m 6,8 km/h (2 Bft) SW 1,00 h 0,102 mm 1,6 UV-I 425 W/m 13,6 C 16,2 C 11,3 km/h (2 Bft)
16.10.2014 15:00 16,4 C 84 % 1006,9 hPa 0,0 l/m 7,3 km/h (2 Bft) S 0,62 h 0,229 mm 1,2 UV-I 130 W/m 13,6 C 15,7 C 11,3 km/h (2 Bft)
16.10.2014 16:00 14,8 C 91 % 1007,2 hPa 0,8 l/m 7,2 km/h (2 Bft) W-SW 0,33 h 0,076 mm 0,0 UV-I 40 W/m 13,3 C 14,0 C 11,5 km/h (2 Bft)
16.10.2014 17:00 14,7 C 94 % 1007,7 hPa 0,0 l/m 5,5 km/h (2 Bft) SW 0,00 h 0,025 mm 0,0 UV-I 16 W/m 13,7 C 14,4 C 9,5 km/h (2 Bft)
16.10.2014 18:00 14,5 C 92 % 1008,1 hPa 0,0 l/m 6,3 km/h (2 Bft) W-SW 0,00 h 0,025 mm 0,0 UV-I 6 W/m 13,2 C 14,0 C 9,9 km/h (2 Bft)
16.10.2014 19:00 14,0 C 93 % 1008,5 hPa 0,0 l/m 6,5 km/h (2 Bft) SW 0,00 h 0,000 mm 0,0 UV-I 0 W/m 12,8 C 13,4 C 10,9 km/h (2 Bft)
16.10.2014 20:00 13,7 C 93 % 1009,1 hPa 0,0 l/m 8,2 km/h (2 Bft) SW 0,00 h 0,000 mm 0,0 UV-I 0 W/m 12,6 C 12,5 C 13,2 km/h (3 Bft)
16.10.2014 21:00 13,4 C 93 % 1009,8 hPa 0,0 l/m 4,6 km/h (1 Bft) W 0,00 h 0,000 mm 0,0 UV-I 0 W/m 12,2 C 13,1 C 8,0 km/h (2 Bft)
16.10.2014 22:00 12,8 C 94 % 1010,1 hPa 0,0 l/m 3,0 km/h (1 Bft) S-SW 0,00 h 0,000 mm 0,0 UV-I 0 W/m 11,8 C 12,8 C 5,9 km/h (2 Bft)
16.10.2014 23:00 12,4 C 94 % 1010,2 hPa 0,0 l/m 1,4 km/h (1 Bft) SW 0,00 h 0,000 mm 0,0 UV-I 0 W/m 11,4 C 12,4 C 3,7 km/h (1 Bft)
17.10.2014 00:00 12,0 C 95 % 1010,2 hPa 0,0 l/m 0,8 km/h (0 Bft) N 0,00 h 0,000 mm 0,0 UV-I 0 W/m 11,3 C 12,0 C 2,5 km/h (1 Bft)
17.10.2014 01:00 12,1 C 96 % 1010,1 hPa 0,0 l/m 1,2 km/h (1 Bft) S 0,00 h 0,000 mm 0,0 UV-I 0 W/m 11,5 C 12,1 C 3,2 km/h (1 Bft)
17.10.2014 02:00 12,0 C 96 % 1009,3 hPa 0,0 l/m 1,2 km/h (1 Bft) S-SO 0,00 h 0,000 mm 0,0 UV-I 0 W/m 11,3 C 12,0 C 2,4 km/h (1 Bft)
17.10.2014 03:00 11,9 C 97 % 1008,9 hPa 0,0 l/m 0,8 km/h (0 Bft) S 0,00 h 0,000 mm 0,0 UV-I 0 W/m 11,4 C 11,9 C 2,3 km/h (1 Bft)
17.10.2014 04:00 12,2 C 97 % 1008,7 hPa 0,4 l/m 1,2 km/h (1 Bft) S 0,00 h 0,000 mm 0,0 UV-I 0 W/m 11,7 C 12,2 C 3,0 km/h (1 Bft)
17.10.2014 05:00 12,1 C 97 % 1008,1 hPa 0,6 l/m 0,2 km/h (0 Bft) N 0,00 h 0,000 mm 0,0 UV-I 0 W/m 11,6 C 12,1 C 0,7 km/h (0 Bft)
17.10.2014 06:00 11,9 C 97 % 1008,3 hPa 0,6 l/m 0,0 km/h (0 Bft) N 0,00 h 0,000 mm 0,0 UV-I 0 W/m 11,4 C 11,9 C 0,1 km/h (0 Bft)
17.10.2014 07:00 11,8 C 97 % 1008,4 hPa 0,8 l/m 0,2 km/h (0 Bft) N 0,00 h 0,000 mm 0,0 UV-I 0 W/m 11,3 C 11,8 C 1,1 km/h (1 Bft)
17.10.2014 08:00 11,8 C 97 % 1009,2 hPa 0,6 l/m 0,3 km/h (0 Bft) N 0,00 h 0,000 mm 0,0 UV-I 13 W/m 11,3 C 11,8 C 1,1 km/h (1 Bft)
17.10.2014 09:00 12,0 C 97 % 1010,6 hPa 0,4 l/m 0,6 km/h (0 Bft) W-NW 0,17 h 0,000 mm 0,0 UV-I 33 W/m 11,5 C 12,0 C 2,1 km/h (1 Bft)
17.10.2014 10:00 12,3 C 98 % 1011,8 hPa 0,4 l/m 2,4 km/h (1 Bft) W-SW 0,82 h 0,025 mm 0,8 UV-I 97 W/m 11,9 C 12,3 C 4,5 km/h (1 Bft)
17.10.2014 11:00 13,6 C 93 % 1012,8 hPa 0,0 l/m 6,4 km/h (2 Bft) W-NW 1,00 h 0,051 mm 1,3 UV-I 239 W/m 12,5 C 13,1 C 10,6 km/h (2 Bft)
17.10.2014 12:00 13,8 C 89 % 1014,1 hPa 0,0 l/m 7,5 km/h (2 Bft) W 0,95 h 0,127 mm 0,9 UV-I 134 W/m 12,0 C 12,9 C 11,4 km/h (2 Bft)
17.10.2014 13:00 13,4 C 93 % 1015,0 hPa 0,0 l/m 5,9 km/h (2 Bft) W 0,28 h 0,076 mm 0,5 UV-I 43 W/m 12,3 C 13,1 C 8,9 km/h (2 Bft)
17.10.2014 14:00 13,0 C 95 % 1015,5 hPa 0,6 l/m 4,3 km/h (1 Bft) NW 0,75 h 0,025 mm 0,7 UV-I 94 W/m 12,2 C 12,9 C 7,3 km/h (2 Bft)
17.10.2014 15:00 13,5 C 90 % 1016,0 hPa 0,0 l/m 7,0 km/h (2 Bft) W 0,98 h 0,051 mm 0,9 UV-I 128 W/m 11,8 C 12,9 C 10,9 km/h (2 Bft)
17.10.2014 16:00 13,1 C 92 % 1016,6 hPa 0,0 l/m 4,4 km/h (1 Bft) W 0,63 h 0,076 mm 0,5 UV-I 67 W/m 11,8 C 12,7 C 7,5 km/h (2 Bft)
17.10.2014 17:00 13,1 C 92 % 1017,2 hPa 0,0 l/m 2,8 km/h (1 Bft) W-SW 0,00 h 0,025 mm 0,0 UV-I 16 W/m 11,8 C 13,1 C 5,3 km/h (1 Bft)
17.10.2014 18:00 12,7 C 94 % 1017,7 hPa 0,0 l/m 1,1 km/h (0 Bft) W-SW 0,00 h 0,000 mm 0,0 UV-I 0 W/m 11,6 C 12,7 C 2,3 km/h (1 Bft)
17.10.2014 19:00 12,4 C 95 % 1018,5 hPa 0,0 l/m 3,1 km/h (1 Bft) S-SW 0,00 h 0,000 mm 0,0 UV-I 0 W/m 11,6 C 12,4 C 6,2 km/h (2 Bft)
17.10.2014 20:00 12,4 C 94 % 1019,0 hPa 0,0 l/m 2,9 km/h (1 Bft) SW 0,00 h 0,000 mm 0,0 UV-I 0 W/m 11,5 C 12,4 C 5,4 km/h (2 Bft)
17.10.2014 21:00 12,3 C 95 % 1019,5 hPa 0,0 l/m 2,1 km/h (1 Bft) SW 0,00 h 0,000 mm 0,0 UV-I 0 W/m 11,5 C 12,3 C 4,5 km/h (1 Bft)
17.10.2014 22:00 12,0 C 94 % 1020,0 hPa 0,0 l/m 0,2 km/h (0 Bft) N 0,00 h 0,000 mm 0,0 UV-I 0 W/m 11,1 C 12,0 C 1,2 km/h (1 Bft)
17.10.2014 23:00 11,2 C 95 % 1020,5 hPa 0,0 l/m 0,4 km/h (0 Bft) S 0,00 h 0,000 mm 0,0 UV-I 0 W/m 10,5 C 11,2 C 1,5 km/h (1 Bft)
18.10.2014 00:00 11,0 C 96 % 1021,0 hPa 0,0 l/m 0,5 km/h (0 Bft) N 0,00 h 0,000 mm 0,0 UV-I 0 W/m 10,4 C 11,0 C 1,2 km/h (1 Bft)
18.10.2014 01:00 10,8 C 96 % 1021,0 hPa 0,0 l/m 0,7 km/h (0 Bft) N 0,00 h 0,000 mm 0,0 UV-I 0 W/m 10,3 C 10,8 C 1,5 km/h (1 Bft)
18.10.2014 02:00 10,0 C 96 % 1021,4 hPa 0,0 l/m 0,2 km/h (0 Bft) N 0,00 h 0,000 mm 0,0 UV-I 0 W/m 9,4 C 10,0 C 0,7 km/h (0 Bft)
18.10.2014 03:00 9,3 C 96 % 1021,7 hPa 0,0 l/m 0,2 km/h (0 Bft) N 0,00 h 0,000 mm 0,0 UV-I 0 W/m 8,7 C 9,3 C 0,5 km/h (0 Bft)
18.10.2014 04:00 9,6 C 97 % 1021,9 hPa 0,0 l/m 0,1 km/h (0 Bft) N 0,00 h 0,000 mm 0,0 UV-I 0 W/m 9,2 C 9,6 C 0,3 km/h (0 Bft)
18.10.2014 05:00 9,9 C 98 % 1022,4 hPa 0,0 l/m 0,3 km/h (0 Bft) N 0,00 h 0,000 mm 0,0 UV-I 0 W/m 9,5 C 9,9 C 0,7 km/h (0 Bft)
18.10.2014 06:00 10,2 C 98 % 1022,8 hPa 0,0 l/m 0,3 km/h (0 Bft) N 0,00 h 0,000 mm 0,0 UV-I 0 W/m 9,9 C 10,2 C 0,7 km/h (0 Bft)
18.10.2014 07:00 10,5 C 98 % 1023,1 hPa 0,0 l/m 0,0 km/h (0 Bft) N 0,00 h 0,000 mm 0,0 UV-I 7 W/m 10,2 C 10,5 C 0,1 km/h (0 Bft)
18.10.2014 08:00 10,7 C 98 % 1023,7 hPa 0,0 l/m 0,1 km/h (0 Bft) N 0,00 h 0,000 mm 0,0 UV-I 16 W/m 10,4 C 10,7 C 0,4 km/h (0 Bft)
18.10.2014 09:00 11,1 C 98 % 1024,4 hPa 0,0 l/m 1,0 km/h (0 Bft) N 0,25 h 0,000 mm 0,0 UV-I 45 W/m 10,8 C 11,1 C 2,5 km/h (1 Bft)
18.10.2014 10:00 11,7 C 94 % 1024,8 hPa 0,0 l/m 3,3 km/h (1 Bft) S 1,00 h 0,025 mm 0,7 UV-I 95 W/m 10,8 C 11,7 C 6,1 km/h (2 Bft)
18.10.2014 11:00 12,4 C 90 % 1025,1 hPa 0,0 l/m 2,0 km/h (1 Bft) S 0,97 h 0,051 mm 1,1 UV-I 154 W/m 10,9 C 12,4 C 3,9 km/h (1 Bft)
18.10.2014 12:00 13,3 C 87 % 1024,9 hPa 0,0 l/m 4,1 km/h (1 Bft) S 1,03 h 0,076 mm 1,7 UV-I 254 W/m 11,2 C 13,2 C 6,7 km/h (2 Bft)
18.10.2014 13:00 14,9 C 83 % 1024,4 hPa 0,0 l/m 3,6 km/h (1 Bft) SW 1,00 h 0,127 mm 2,4 UV-I 462 W/m 11,9 C 14,9 C 6,3 km/h (2 Bft)
18.10.2014 14:00 15,6 C 79 % 1024,0 hPa 0,0 l/m 2,3 km/h (1 Bft) SW 1,00 h 0,254 mm 1,8 UV-I 348 W/m 12,1 C 15,7 C 4,3 km/h (1 Bft)
18.10.2014 15:00 16,4 C 77 % 1023,7 hPa 0,0 l/m 2,5 km/h (1 Bft) S 1,00 h 0,178 mm 1,2 UV-I 260 W/m 12,3 C 16,4 C 4,6 km/h (1 Bft)
18.10.2014 16:00 16,4 C 76 % 1023,4 hPa 0,0 l/m 1,2 km/h (1 Bft) S-SW 1,00 h 0,152 mm 0,6 UV-I 142 W/m 12,2 C 16,4 C 2,7 km/h (1 Bft)
18.10.2014 17:00 15,4 C 84 % 1023,3 hPa 0,0 l/m 1,4 km/h (1 Bft) S 0,52 h 0,076 mm 0,0 UV-I 51 W/m 12,7 C 15,4 C 3,3 km/h (1 Bft)
18.10.2014 18:00 14,1 C 89 % 1023,6 hPa 0,0 l/m 0,5 km/h (0 Bft) N 0,00 h 0,025 mm 0,0 UV-I 8 W/m 12,3 C 14,1 C 1,6 km/h (1 Bft)
18.10.2014 19:00 12,8 C 90 % 1023,9 hPa 0,0 l/m 0,5 km/h (0 Bft) O 0,00 h 0,000 mm 0,0 UV-I 0 W/m 11,1 C 12,8 C 2,1 km/h (1 Bft)
18.10.2014 20:00 11,4 C 91 % 1024,0 hPa 0,0 l/m 0,7 km/h (0 Bft) N 0,00 h 0,000 mm 0,0 UV-I 0 W/m 9,9 C 11,4 C 1,9 km/h (1 Bft)
18.10.2014 21:00 10,0 C 92 % 1024,3 hPa 0,0 l/m 0,0 km/h (0 Bft) N 0,00 h 0,001 mm 0,0 UV-I 0 W/m 8,7 C 10,0 C 0,0 km/h (0 Bft)
18.10.2014 22:00 8,7 C 92 % 1024,4 hPa 0,0 l/m 0,0 km/h (0 Bft) N 0,00 h 0,000 mm 0,0 UV-I 0 W/m 7,5 C 8,7 C 0,0 km/h (0 Bft)
18.10.2014 23:00 7,8 C 94 % 1024,2 hPa 0,0 l/m 0,0 km/h (0 Bft) N 0,00 h 0,000 mm 0,0 UV-I 0 W/m 6,8 C 7,8 C 0,0 km/h (0 Bft)
19.10.2014 00:00 7,0 C 94 % 1023,9 hPa 0,0 l/m 0,0 km/h (0 Bft) N 0,00 h 0,000 mm 0,0 UV-I 0 W/m 6,2 C 7,0 C 0,0 km/h (0 Bft)
19.10.2014 01:00 6,8 C 95 % 1023,8 hPa 0,0 l/m 0,0 km/h (0 Bft) N 0,00 h 0,000 mm 0,0 UV-I 0 W/m 6,1 C 6,8 C 0,1 km/h (0 Bft)
19.10.2014 02:00 6,5 C 96 % 1023,6 hPa 0,0 l/m 0,1 km/h (0 Bft) N 0,00 h 0,000 mm 0,0 UV-I 0 W/m 5,8 C 6,5 C 0,2 km/h (0 Bft)
19.10.2014 03:00 5,8 C 95 % 1023,5 hPa 0,0 l/m 0,0 km/h (0 Bft) N 0,00 h 0,000 mm 0,0 UV-I 0 W/m 5,1 C 5,8 C 0,0 km/h (0 Bft)
19.10.2014 04:00 5,2 C 95 % 1023,2 hPa 0,0 l/m 0,0 km/h (0 Bft) N 0,00 h 0,000 mm 0,0 UV-I 0 W/m 4,5 C 5,2 C 0,0 km/h (0 Bft)
19.10.2014 05:00 4,8 C 96 % 1023,0 hPa 0,0 l/m 0,0 km/h (0 Bft) N 0,00 h 0,000 mm 0,0 UV-I 0 W/m 4,2 C 4,8 C 0,0 km/h (0 Bft)
19.10.2014 06:00 4,6 C 96 % 1023,0 hPa 0,0 l/m 0,0 km/h (0 Bft) N 0,00 h 0,000 mm 0,0 UV-I 0 W/m 4,0 C 4,6 C 0,1 km/h (0 Bft)
19.10.2014 07:00 4,3 C 96 % 1022,7 hPa 0,0 l/m 0,2 km/h (0 Bft) N 0,00 h 0,000 mm 0,0 UV-I 9 W/m 3,8 C 4,3 C 0,6 km/h (0 Bft)
19.10.2014 08:00 4,6 C 97 % 1022,9 hPa 0,0 l/m 0,0 km/h (0 Bft) N 0,07 h 0,000 mm 0,0 UV-I 32 W/m 4,1 C 4,6 C 0,0 km/h (0 Bft)
19.10.2014 09:00 8,0 C 97 % 1022,9 hPa 0,0 l/m 0,1 km/h (0 Bft) N 1,00 h 0,025 mm 0,7 UV-I 232 W/m 7,5 C 8,0 C 0,4 km/h (0 Bft)
19.10.2014 10:00 11,5 C 92 % 1022,5 hPa 0,0 l/m 1,8 km/h (1 Bft) NW 1,00 h 0,102 mm 1,3 UV-I 369 W/m 10,2 C 11,5 C 3,7 km/h (1 Bft)
19.10.2014 11:00 14,7 C 86 % 1022,3 hPa 0,0 l/m 4,1 km/h (1 Bft) N-NW 1,00 h 0,178 mm 2,1 UV-I 461 W/m 12,5 C 14,5 C 7,6 km/h (2 Bft)
19.10.2014 12:00 16,0 C 82 % 1022,0 hPa 0,0 l/m 8,8 km/h (2 Bft) SW 1,00 h 0,254 mm 2,5 UV-I 502 W/m 13,0 C 14,8 C 14,2 km/h (3 Bft)
19.10.2014 13:00 16,8 C 80 % 1021,3 hPa 0,0 l/m 7,1 km/h (2 Bft) SW 1,00 h 0,279 mm 2,4 UV-I 480 W/m 13,3 C 16,3 C 11,0 km/h (2 Bft)
19.10.2014 14:00 17,9 C 77 % 1020,6 hPa 0,0 l/m 7,2 km/h (2 Bft) SW 1,00 h 0,279 mm 2,0 UV-I 477 W/m 13,8 C 17,3 C 11,2 km/h (2 Bft)
19.10.2014 15:00 18,3 C 76 % 1020,0 hPa 0,0 l/m 7,3 km/h (2 Bft) W-SW 1,00 h 0,279 mm 1,3 UV-I 352 W/m 14,0 C 17,7 C 11,3 km/h (2 Bft)
19.10.2014 16:00 17,8 C 78 % 1019,6 hPa 0,0 l/m 5,9 km/h (2 Bft) W-SW 1,00 h 0,229 mm 0,7 UV-I 166 W/m 14,0 C 17,4 C 9,5 km/h (2 Bft)
19.10.2014 17:00 16,8 C 82 % 1019,2 hPa 0,0 l/m 3,5 km/h (1 Bft) SW 0,37 h 0,102 mm 0,0 UV-I 39 W/m 13,8 C 16,8 C 6,5 km/h (2 Bft)
19.10.2014 18:00 15,2 C 86 % 1019,5 hPa 0,0 l/m 1,3 km/h (1 Bft) S 0,00 h 0,025 mm 0,0 UV-I 5 W/m 12,9 C 15,2 C 3,5 km/h (1 Bft)
19.10.2014 19:00 14,2 C 88 % 1019,7 hPa 0,0 l/m 0,6 km/h (0 Bft) W-SW 0,00 h 0,000 mm 0,0 UV-I 0 W/m 12,3 C 14,2 C 2,1 km/h (1 Bft)
19.10.2014 20:00 13,8 C 92 % 1019,3 hPa 0,0 l/m 1,1 km/h (1 Bft) S 0,00 h 0,000 mm 0,0 UV-I 0 W/m 12,6 C 13,8 C 2,7 km/h (1 Bft)
19.10.2014 21:00 13,1 C 93 % 1018,9 hPa 0,0 l/m 0,3 km/h (0 Bft) N 0,00 h 0,000 mm 0,0 UV-I 0 W/m 12,0 C 13,1 C 0,6 km/h (0 Bft)
19.10.2014 22:00 13,0 C 96 % 1018,6 hPa 0,0 l/m 5,0 km/h (1 Bft) SW 0,00 h 0,000 mm 0,0 UV-I 0 W/m 12,3 C 12,8 C 8,5 km/h (2 Bft)
19.10.2014 23:00 13,6 C 96 % 1018,6 hPa 0,0 l/m 3,4 km/h (1 Bft) W-SW 0,00 h 0,000 mm 0,0 UV-I 0 W/m 12,9 C 13,6 C 6,6 km/h (2 Bft)
Min-Datum _ 19.10.14 13.10.14 16.10.14 - 13.10.14 - - - - - 19.10.14 19.10.14 13.10.14
_ Min-Zeit 07:18 13:54 16:31 - 00:00 - - - - - 07:19 07:19 00:00
Minimum _ 4,3 C 72 % 1006,5 hPa - 0,0 km/h (0 Bft) - - - - - 3,7 C 4,3 C 0,0 km/h (0 Bft)
Max-Datum _ 13.10.14 15.10.14 18.10.14 14.10.14 16.10.14 - 14.10.14 19.10.14 13.10.14 14.10.14 13.10.14 13.10.14 16.10.14
_ Max-Zeit 13:31 08:48 11:17 03:02 11:05 - 12:03 13:00 13:19 13:14 13:20 13:31 11:53
Maximum _ 19,6 C 98 % 1025,2 hPa 2,4 l/m 16,1 km/h
W-SW (3 Bft)
- 0,07 h 0,279 mm 3,0 UV-I 763 W/m 15,8 C 19,6 C 27,4 km/h
W-SW (5 Bft)
Durchschnitt _ 12,6 C 92 % 1013,3 hPa #17,6 l/m 2,2 km/h (1 Bft) N #50:10 h #7,160 mm 1,3 UV-I 155 W/m 11,2 C 12,4 C 4,1 km/h (1 Bft)